sensor_id;sensor_type;location;lat;lon;timestamp;pressure;altitude;pressure_sealevel;temperature;humidity
36254;BME280;22291;52.250;21.228;2023-01-25T00:01:03;102378.67;;;1.23;98.80
36254;BME280;22291;52.250;21.228;2023-01-25T00:03:30;102386.15;;;1.24;98.83
36254;BME280;22291;52.250;21.228;2023-01-25T00:06:01;102383.67;;;1.22;98.86
36254;BME280;22291;52.250;21.228;2023-01-25T00:08:29;102383.38;;;1.21;98.92
36254;BME280;22291;52.250;21.228;2023-01-25T00:10:58;102379.87;;;1.21;98.81
36254;BME280;22291;52.250;21.228;2023-01-25T00:13:26;102388.19;;;1.22;98.77
36254;BME280;22291;52.250;21.228;2023-01-25T00:15:53;102378.76;;;1.19;98.87
36254;BME280;22291;52.250;21.228;2023-01-25T00:18:19;102376.28;;;1.18;98.87
36254;BME280;22291;52.250;21.228;2023-01-25T00:20:47;102375.25;;;1.19;98.92
36254;BME280;22291;52.250;21.228;2023-01-25T00:23:13;102372.72;;;1.21;98.95
36254;BME280;22291;52.250;21.228;2023-01-25T00:25:39;102365.53;;;1.22;98.85
36254;BME280;22291;52.250;21.228;2023-01-25T00:28:06;102365.11;;;1.18;98.60
36254;BME280;22291;52.250;21.228;2023-01-25T00:30:34;102357.62;;;1.18;98.64
36254;BME280;22291;52.250;21.228;2023-01-25T00:33:19;102359.25;;;1.19;98.75
36254;BME280;22291;52.250;21.228;2023-01-25T00:35:34;102355.25;;;1.19;98.76
36254;BME280;22291;52.250;21.228;2023-01-25T00:38:04;102358.44;;;1.18;98.69
36254;BME280;22291;52.250;21.228;2023-01-25T00:40:34;102359.45;;;1.17;98.68
36254;BME280;22291;52.250;21.228;2023-01-25T00:43:00;102362.11;;;1.17;98.60
36254;BME280;22291;52.250;21.228;2023-01-25T00:45:27;102362.63;;;1.17;98.47
36254;BME280;22291;52.250;21.228;2023-01-25T00:47:56;102352.16;;;1.15;98.35
36254;BME280;22291;52.250;21.228;2023-01-25T00:50:22;102348.35;;;1.14;98.18
36254;BME280;22291;52.250;21.228;2023-01-25T00:52:52;102345.88;;;1.12;97.81
36254;BME280;22291;52.250;21.228;2023-01-25T00:55:18;102335.50;;;1.06;97.46
36254;BME280;22291;52.250;21.228;2023-01-25T00:57:44;102337.64;;;1.07;97.44
36254;BME280;22291;52.250;21.228;2023-01-25T01:00:16;102330.36;;;1.05;97.30
36254;BME280;22291;52.250;21.228;2023-01-25T01:02:43;102336.40;;;1.03;97.04
36254;BME280;22291;52.250;21.228;2023-01-25T01:05:12;102331.97;;;0.99;96.94
36254;BME280;22291;52.250;21.228;2023-01-25T01:07:40;102329.69;;;0.96;96.84
36254;BME280;22291;52.250;21.228;2023-01-25T01:10:10;102330.41;;;0.94;96.90
36254;BME280;22291;52.250;21.228;2023-01-25T01:12:37;102337.55;;;0.93;96.96
36254;BME280;22291;52.250;21.228;2023-01-25T01:15:04;102333.55;;;0.93;96.94
36254;BME280;22291;52.250;21.228;2023-01-25T01:17:32;102332.93;;;0.91;96.97
36254;BME280;22291;52.250;21.228;2023-01-25T01:19:58;102341.77;;;0.92;97.04
36254;BME280;22291;52.250;21.228;2023-01-25T01:22:24;102338.78;;;0.91;97.01
36254;BME280;22291;52.250;21.228;2023-01-25T01:24:50;102339.30;;;0.90;96.87
36254;BME280;22291;52.250;21.228;2023-01-25T01:27:17;102339.87;;;0.86;96.53
36254;BME280;22291;52.250;21.228;2023-01-25T01:29:43;102337.72;;;0.85;96.56
36254;BME280;22291;52.250;21.228;2023-01-25T01:32:09;102340.58;;;0.84;96.52
36254;BME280;22291;52.250;21.228;2023-01-25T01:34:36;102335.44;;;0.82;96.37
36254;BME280;22291;52.250;21.228;2023-01-25T01:37:04;102335.92;;;0.82;96.43
36254;BME280;22291;52.250;21.228;2023-01-25T01:39:31;102332.97;;;0.81;96.46
36254;BME280;22291;52.250;21.228;2023-01-25T01:41:58;102324.83;;;0.78;96.45
36254;BME280;22291;52.250;21.228;2023-01-25T01:47:21;102320.22;;;0.76;96.24
36254;BME280;22291;52.250;21.228;2023-01-25T01:49:55;102319.08;;;0.74;96.23
36254;BME280;22291;52.250;21.228;2023-01-25T01:52:28;102331.06;;;0.74;96.27
36254;BME280;22291;52.250;21.228;2023-01-25T01:55:03;102319.59;;;0.74;96.24
36254;BME280;22291;52.250;21.228;2023-01-25T01:57:40;102318.45;;;0.72;96.18
36254;BME280;22291;52.250;21.228;2023-01-25T02:00:22;102326.11;;;0.71;96.17
36254;BME280;22291;52.250;21.228;2023-01-25T02:02:50;102321.50;;;0.69;95.95
36254;BME280;22291;52.250;21.228;2023-01-25T02:05:31;102312.06;;;0.67;95.73
36254;BME280;22291;52.250;21.228;2023-01-25T02:08:04;102310.92;;;0.65;95.63
36254;BME280;22291;52.250;21.228;2023-01-25T02:10:33;102307.94;;;0.64;95.61
36254;BME280;22291;52.250;21.228;2023-01-25T02:13:02;102308.45;;;0.64;95.62
36254;BME280;22291;52.250;21.228;2023-01-25T02:15:32;102306.17;;;0.61;95.60
36254;BME280;22291;52.250;21.228;2023-01-25T02:18:09;102301.03;;;0.59;95.46
36254;BME280;22291;52.250;21.228;2023-01-25T02:20:42;102296.73;;;0.58;95.51
36254;BME280;22291;52.250;21.228;2023-01-25T02:26:03;102293.83;;;0.53;95.24
36254;BME280;22291;52.250;21.228;2023-01-25T02:28:41;102289.18;;;0.51;95.14
36254;BME280;22291;52.250;21.228;2023-01-25T02:31:15;102287.22;;;0.49;95.25
36254;BME280;22291;52.250;21.228;2023-01-25T02:33:43;102293.59;;;0.48;95.28
36254;BME280;22291;52.250;21.228;2023-01-25T02:36:14;102292.93;;;0.46;95.26
36254;BME280;22291;52.250;21.228;2023-01-25T02:39:17;102279.55;;;0.39;95.21
36254;BME280;22291;52.250;21.228;2023-01-25T02:41:38;102289.12;;;0.44;95.15
36254;BME280;22291;52.250;21.228;2023-01-25T02:44:08;102290.67;;;0.43;95.08
36254;BME280;22291;52.250;21.228;2023-01-25T02:46:40;102295.67;;;0.42;95.04
36254;BME280;22291;52.250;21.228;2023-01-25T02:49:11;102292.58;;;0.38;94.88
36254;BME280;22291;52.250;21.228;2023-01-25T02:51:41;102286.11;;;0.36;94.57
36254;BME280;22291;52.250;21.228;2023-01-25T02:54:14;102276.87;;;0.32;94.44
36254;BME280;22291;52.250;21.228;2023-01-25T02:56:43;102280.72;;;0.30;94.34
36254;BME280;22291;52.250;21.228;2023-01-25T02:59:12;102275.59;;;0.28;94.37
36254;BME280;22291;52.250;21.228;2023-01-25T03:01:41;102281.42;;;0.28;94.37
36254;BME280;22291;52.250;21.228;2023-01-25T03:04:10;102279.95;;;0.25;94.28
36254;BME280;22291;52.250;21.228;2023-01-25T03:06:39;102269.50;;;0.24;94.08
36254;BME280;22291;52.250;21.228;2023-01-25T03:09:08;102264.88;;;0.22;94.04
36254;BME280;22291;52.250;21.228;2023-01-25T03:11:36;102252.79;;;0.19;94.06
36254;BME280;22291;52.250;21.228;2023-01-25T03:14:02;102251.76;;;0.20;94.16
36254;BME280;22291;52.250;21.228;2023-01-25T03:16:31;102244.29;;;0.20;94.07
36254;BME280;22291;52.250;21.228;2023-01-25T03:18:58;102247.33;;;0.16;93.73
36254;BME280;22291;52.250;21.228;2023-01-25T03:21:25;102247.33;;;0.16;93.73
36254;BME280;22291;52.250;21.228;2023-01-25T03:23:57;102244.37;;;0.15;93.84
36254;BME280;22291;52.250;21.228;2023-01-25T03:26:28;102239.86;;;0.16;93.90
36254;BME280;22291;52.250;21.228;2023-01-25T03:28:56;102237.39;;;0.14;93.75
36254;BME280;22291;52.250;21.228;2023-01-25T03:31:25;102219.14;;;0.11;93.70
36254;BME280;22291;52.250;21.228;2023-01-25T03:33:53;102224.34;;;0.09;93.69
36254;BME280;22291;52.250;21.228;2023-01-25T03:36:19;102232.33;;;0.09;93.81
36254;BME280;22291;52.250;21.228;2023-01-25T03:38:45;102221.36;;;0.08;93.73
36254;BME280;22291;52.250;21.228;2023-01-25T03:41:12;102224.73;;;0.06;93.74
36254;BME280;22291;52.250;21.228;2023-01-25T03:43:41;102210.61;;;0.05;93.63
36254;BME280;22291;52.250;21.228;2023-01-25T03:46:09;102241.40;;;0.04;93.63
36254;BME280;22291;52.250;21.228;2023-01-25T03:48:35;102244.36;;;0.05;93.76
36254;BME280;22291;52.250;21.228;2023-01-25T03:51:04;102235.23;;;0.03;93.72
36254;BME280;22291;52.250;21.228;2023-01-25T03:53:34;102237.08;;;0.03;93.74
36254;BME280;22291;52.250;21.228;2023-01-25T03:56:07;102233.90;;;0.03;93.75
36254;BME280;22291;52.250;21.228;2023-01-25T03:58:37;102230.09;;;0.02;93.73
36254;BME280;22291;52.250;21.228;2023-01-25T04:01:06;102225.10;;;0.03;93.70
36254;BME280;22291;52.250;21.228;2023-01-25T04:03:33;102214.65;;;0.01;93.70
36254;BME280;22291;52.250;21.228;2023-01-25T04:06:04;102219.16;;;0.01;93.48
36254;BME280;22291;52.250;21.228;2023-01-25T04:08:32;102209.89;;;-0.04;93.30
36254;BME280;22291;52.250;21.228;2023-01-25T04:11:05;102211.03;;;-0.02;93.38
36254;BME280;22291;52.250;21.228;2023-01-25T04:13:35;102197.73;;;-0.02;93.32
36254;BME280;22291;52.250;21.228;2023-01-25T04:16:06;102206.94;;;-0.05;93.17
36254;BME280;22291;52.250;21.228;2023-01-25T04:18:33;102208.75;;;-0.05;93.10
36254;BME280;22291;52.250;21.228;2023-01-25T04:20:59;102204.65;;;-0.08;93.00
36254;BME280;22291;52.250;21.228;2023-01-25T04:23:28;102210.97;;;-0.09;93.05
36254;BME280;22291;52.250;21.228;2023-01-25T04:25:59;102203.69;;;-0.11;93.05
36254;BME280;22291;52.250;21.228;2023-01-25T04:28:32;102202.36;;;-0.11;92.92
36254;BME280;22291;52.250;21.228;2023-01-25T04:31:03;102207.38;;;-0.12;92.94
36254;BME280;22291;52.250;21.228;2023-01-25T04:33:33;102204.40;;;-0.13;92.99
36254;BME280;22291;52.250;21.228;2023-01-25T04:36:02;102203.58;;;-0.13;92.82
36254;BME280;22291;52.250;21.228;2023-01-25T04:38:29;102200.27;;;-0.15;92.90
36254;BME280;22291;52.250;21.228;2023-01-25T04:40:55;102200.59;;;-0.14;93.02
36254;BME280;22291;52.250;21.228;2023-01-25T04:43:21;102200.08;;;-0.14;92.98
36254;BME280;22291;52.250;21.228;2023-01-25T04:45:48;102191.47;;;-0.16;92.85
36254;BME280;22291;52.250;21.228;2023-01-25T04:48:17;102197.61;;;-0.15;92.91
36254;BME280;22291;52.250;21.228;2023-01-25T04:50:45;102195.27;;;-0.14;93.02
36254;BME280;22291;52.250;21.228;2023-01-25T04:53:13;102195.79;;;-0.15;92.96
36254;BME280;22291;52.250;21.228;2023-01-25T04:55:45;102182.68;;;-0.16;92.79
36254;BME280;22291;52.250;21.228;2023-01-25T04:58:14;102190.33;;;-0.17;92.66
36254;BME280;22291;52.250;21.228;2023-01-25T05:00:40;102180.20;;;-0.18;92.78
36254;BME280;22291;52.250;21.228;2023-01-25T05:03:06;102188.19;;;-0.18;92.78
36254;BME280;22291;52.250;21.228;2023-01-25T05:05:33;102184.57;;;-0.21;92.83
36254;BME280;22291;52.250;21.228;2023-01-25T05:07:59;102192.03;;;-0.21;93.00
36254;BME280;22291;52.250;21.228;2023-01-25T05:10:26;102185.09;;;-0.22;93.01
36254;BME280;22291;52.250;21.228;2023-01-25T05:12:52;102187.23;;;-0.21;92.99
36254;BME280;22291;52.250;21.228;2023-01-25T05:15:18;102183.05;;;-0.20;93.08
36254;BME280;22291;52.250;21.228;2023-01-25T05:17:46;102184.91;;;-0.20;93.02
36254;BME280;22291;52.250;21.228;2023-01-25T05:20:12;102178.73;;;-0.21;93.06
36254;BME280;22291;52.250;21.228;2023-01-25T05:22:38;102177.11;;;-0.22;92.85
36254;BME280;22291;52.250;21.228;2023-01-25T05:25:07;102179.95;;;-0.23;92.84
36254;BME280;22291;52.250;21.228;2023-01-25T05:27:36;102180.14;;;-0.25;92.73
36254;BME280;22291;52.250;21.228;2023-01-25T05:30:05;102177.05;;;-0.28;92.45
36254;BME280;22291;52.250;21.228;2023-01-25T05:32:32;102181.41;;;-0.31;92.29
36254;BME280;22291;52.250;21.228;2023-01-25T05:34:58;102175.31;;;-0.36;92.33
36254;BME280;22291;52.250;21.228;2023-01-25T05:37:24;102178.68;;;-0.38;92.34
36254;BME280;22291;52.250;21.228;2023-01-25T05:39:50;102175.91;;;-0.41;92.16
36254;BME280;22291;52.250;21.228;2023-01-25T05:42:18;102179.75;;;-0.43;92.14
36254;BME280;22291;52.250;21.228;2023-01-25T05:44:46;102175.66;;;-0.46;92.21
36254;BME280;22291;52.250;21.228;2023-01-25T05:47:15;102179.20;;;-0.49;92.14
36254;BME280;22291;52.250;21.228;2023-01-25T05:49:44;102188.17;;;-0.50;92.33
36254;BME280;22291;52.250;21.228;2023-01-25T05:52:17;102181.72;;;-0.52;92.22
36254;BME280;22291;52.250;21.228;2023-01-25T05:54:43;102176.77;;;-0.55;92.19
36254;BME280;22291;52.250;21.228;2023-01-25T05:57:09;102179.13;;;-0.56;92.21
36254;BME280;22291;52.250;21.228;2023-01-25T05:59:35;102172.34;;;-0.59;92.23
36254;BME280;22291;52.250;21.228;2023-01-25T06:02:02;102172.23;;;-0.61;92.11
36254;BME280;22291;52.250;21.228;2023-01-25T06:04:28;102163.92;;;-0.62;92.05
36254;BME280;22291;52.250;21.228;2023-01-25T06:06:54;102156.13;;;-0.64;92.08
36254;BME280;22291;52.250;21.228;2023-01-25T06:09:23;102153.84;;;-0.67;92.12
36254;BME280;22291;52.250;21.228;2023-01-25T06:11:49;102158.34;;;-0.67;92.08
36254;BME280;22291;52.250;21.228;2023-01-25T06:14:18;102154.43;;;-0.71;91.81
36254;BME280;22291;52.250;21.228;2023-01-25T06:16:44;102159.27;;;-0.75;91.76
36254;BME280;22291;52.250;21.228;2023-01-25T06:19:12;102154.02;;;-0.79;91.77
36254;BME280;22291;52.250;21.228;2023-01-25T06:21:39;102156.68;;;-0.79;92.07
36254;BME280;22291;52.250;21.228;2023-01-25T06:24:07;102162.81;;;-0.79;92.25
36254;BME280;22291;52.250;21.228;2023-01-25T06:26:34;102163.33;;;-0.79;92.31
36254;BME280;22291;52.250;21.228;2023-01-25T06:29:00;102168.78;;;-0.77;92.32
36254;BME280;22291;52.250;21.228;2023-01-25T06:31:26;102169.97;;;-0.79;92.10
36254;BME280;22291;52.250;21.228;2023-01-25T06:33:52;102168.52;;;-0.82;92.08
36254;BME280;22291;52.250;21.228;2023-01-25T06:36:21;102162.70;;;-0.81;92.38
36254;BME280;22291;52.250;21.228;2023-01-25T06:38:49;102165.47;;;-0.79;92.47
36254;BME280;22291;52.250;21.228;2023-01-25T06:41:19;102164.98;;;-0.78;92.52
36254;BME280;22291;52.250;21.228;2023-01-25T06:43:52;102162.95;;;-0.76;92.56
36254;BME280;22291;52.250;21.228;2023-01-25T06:46:16;102160.93;;;-0.74;92.65
36254;BME280;22291;52.250;21.228;2023-01-25T06:48:45;102162.26;;;-0.74;92.44
36254;BME280;22291;52.250;21.228;2023-01-25T06:51:13;102162.26;;;-0.74;92.32
36254;BME280;22291;52.250;21.228;2023-01-25T06:53:42;102161.92;;;-0.75;92.39
36254;BME280;22291;52.250;21.228;2023-01-25T06:56:17;102145.80;;;-0.73;92.45
36254;BME280;22291;52.250;21.228;2023-01-25T06:58:45;102149.16;;;-0.76;92.29
36254;BME280;22291;52.250;21.228;2023-01-25T07:01:23;102143.33;;;-0.75;92.21
36254;BME280;22291;52.250;21.228;2023-01-25T07:03:57;102141.07;;;-0.78;91.93
36254;BME280;22291;52.250;21.228;2023-01-25T07:06:30;102140.41;;;-0.80;91.98
36254;BME280;22291;52.250;21.228;2023-01-25T07:09:03;102135.09;;;-0.80;92.05
36254;BME280;22291;52.250;21.228;2023-01-25T07:11:30;102134.47;;;-0.82;92.03
36254;BME280;22291;52.250;21.228;2023-01-25T07:13:57;102130.18;;;-0.83;92.08
36254;BME280;22291;52.250;21.228;2023-01-25T07:16:23;102123.91;;;-0.86;91.92
36254;BME280;22291;52.250;21.228;2023-01-25T07:18:49;102124.09;;;-0.88;91.92
36254;BME280;22291;52.250;21.228;2023-01-25T07:21:18;102126.75;;;-0.88;92.10
36254;BME280;22291;52.250;21.228;2023-01-25T07:23:52;102124.72;;;-0.86;92.12
36254;BME280;22291;52.250;21.228;2023-01-25T07:26:20;102127.08;;;-0.87;92.06
36254;BME280;22291;52.250;21.228;2023-01-25T07:28:51;102121.77;;;-0.87;92.08
36254;BME280;22291;52.250;21.228;2023-01-25T07:31:20;102119.59;;;-0.87;92.01
36254;BME280;22291;52.250;21.228;2023-01-25T07:33:52;102127.45;;;-0.90;91.90
36254;BME280;22291;52.250;21.228;2023-01-25T07:36:22;102130.41;;;-0.89;92.08
36254;BME280;22291;52.250;21.228;2023-01-25T07:38:55;102130.11;;;-0.90;92.11
36254;BME280;22291;52.250;21.228;2023-01-25T07:41:24;102125.09;;;-0.89;92.11
36254;BME280;22291;52.250;21.228;2023-01-25T07:43:53;102125.78;;;-0.91;92.02
36254;BME280;22291;52.250;21.228;2023-01-25T07:46:22;102126.60;;;-0.90;92.05
36254;BME280;22291;52.250;21.228;2023-01-25T07:48:51;102126.94;;;-0.89;92.14
36254;BME280;22291;52.250;21.228;2023-01-25T07:51:21;102128.08;;;-0.88;92.14
36254;BME280;22291;52.250;21.228;2023-01-25T07:53:54;102126.94;;;-0.89;92.05
36254;BME280;22291;52.250;21.228;2023-01-25T07:56:25;102123.58;;;-0.87;92.24
36254;BME280;22291;52.250;21.228;2023-01-25T07:58:58;102127.08;;;-0.87;92.20
36254;BME280;22291;52.250;21.228;2023-01-25T08:01:31;102127.08;;;-0.87;92.24
36254;BME280;22291;52.250;21.228;2023-01-25T08:04:00;102122.69;;;-0.84;92.18
36254;BME280;22291;52.250;21.228;2023-01-25T08:06:32;102117.56;;;-0.85;92.26
36254;BME280;22291;52.250;21.228;2023-01-25T08:09:03;102118.22;;;-0.83;92.31
36254;BME280;22291;52.250;21.228;2023-01-25T08:11:36;102113.02;;;-0.81;92.40
36254;BME280;22291;52.250;21.228;2023-01-25T08:14:03;102110.51;;;-0.78;92.51
36254;BME280;22291;52.250;21.228;2023-01-25T08:16:32;102116.97;;;-0.77;92.43
36254;BME280;22291;52.250;21.228;2023-01-25T08:19:01;102115.94;;;-0.76;92.44
36254;BME280;22291;52.250;21.228;2023-01-25T08:21:32;102108.59;;;-0.73;92.37
36254;BME280;22291;52.250;21.228;2023-01-25T08:24:04;102102.28;;;-0.72;92.25
36254;BME280;22291;52.250;21.228;2023-01-25T08:26:33;102104.94;;;-0.72;91.95
36254;BME280;22291;52.250;21.228;2023-01-25T08:29:00;102103.09;;;-0.72;91.93
36254;BME280;22291;52.250;21.228;2023-01-25T08:31:29;102103.80;;;-0.74;91.64
36254;BME280;22291;52.250;21.228;2023-01-25T08:34:00;102093.67;;;-0.74;91.74
36254;BME280;22291;52.250;21.228;2023-01-25T08:36:28;102093.05;;;-0.77;91.75
36254;BME280;22291;52.250;21.228;2023-01-25T08:38:58;102089.36;;;-0.76;91.81
36254;BME280;22291;52.250;21.228;2023-01-25T08:41:30;102086.19;;;-0.75;91.74
36254;BME280;22291;52.250;21.228;2023-01-25T08:43:59;102089.31;;;-0.71;91.94
36254;BME280;22291;52.250;21.228;2023-01-25T08:46:29;102084.30;;;-0.70;91.99
36254;BME280;22291;52.250;21.228;2023-01-25T08:49:00;102083.30;;;-0.69;91.92
36254;BME280;22291;52.250;21.228;2023-01-25T08:51:27;102082.41;;;-0.66;92.05
36254;BME280;22291;52.250;21.228;2023-01-25T08:54:01;102082.71;;;-0.65;91.97
36254;BME280;22291;52.250;21.228;2023-01-25T08:56:31;102081.71;;;-0.64;92.10
36254;BME280;22291;52.250;21.228;2023-01-25T08:58:58;102074.36;;;-0.62;92.05
36254;BME280;22291;52.250;21.228;2023-01-25T09:01:24;102080.52;;;-0.61;91.91
36254;BME280;22291;52.250;21.228;2023-01-25T09:03:52;102074.69;;;-0.61;91.77
36254;BME280;22291;52.250;21.228;2023-01-25T09:06:21;102069.67;;;-0.60;91.54
36254;BME280;22291;52.250;21.228;2023-01-25T09:08:47;102066.09;;;-0.63;91.35
36254;BME280;22291;52.250;21.228;2023-01-25T09:11:18;102062.40;;;-0.62;91.43
36254;BME280;22291;52.250;21.228;2023-01-25T09:13:49;102068.05;;;-0.61;91.32
36254;BME280;22291;52.250;21.228;2023-01-25T09:16:22;102060.37;;;-0.60;91.39
36254;BME280;22291;52.250;21.228;2023-01-25T09:18:57;102060.88;;;-0.60;91.26
36254;BME280;22291;52.250;21.228;2023-01-25T09:21:28;102060.37;;;-0.60;91.58
36254;BME280;22291;52.250;21.228;2023-01-25T09:23:57;102057.33;;;-0.57;91.75
36254;BME280;22291;52.250;21.228;2023-01-25T09:26:25;102060.56;;;-0.50;91.80
36254;BME280;22291;52.250;21.228;2023-01-25T09:28:53;102049.12;;;-0.51;91.59
36254;BME280;22291;52.250;21.228;2023-01-25T09:31:37;102050.89;;;-0.47;91.68
36254;BME280;22291;52.250;21.228;2023-01-25T09:34:13;102048.33;;;-0.45;91.67
36254;BME280;22291;52.250;21.228;2023-01-25T09:36:40;102042.64;;;-0.42;91.76
36254;BME280;22291;52.250;21.228;2023-01-25T09:39:08;102038.08;;;-0.37;91.83
36254;BME280;22291;52.250;21.228;2023-01-25T09:44:58;102027.06;;;-0.34;91.51
36254;BME280;22291;52.250;21.228;2023-01-25T09:47:37;102023.70;;;-0.32;91.53
36254;BME280;22291;52.250;21.228;2023-01-25T09:53:18;102015.34;;;-0.29;91.22
36254;BME280;22291;52.250;21.228;2023-01-25T09:55:58;102013.68;;;-0.30;90.89
36254;BME280;22291;52.250;21.228;2023-01-25T09:58:36;102020.33;;;-0.30;90.82
36254;BME280;22291;52.250;21.228;2023-01-25T10:01:28;102016.66;;;-0.29;90.81
36254;BME280;22291;52.250;21.228;2023-01-25T10:04:08;102016.96;;;-0.28;90.69
36254;BME280;22291;52.250;21.228;2023-01-25T10:06:40;102017.29;;;-0.27;90.73
36254;BME280;22291;52.250;21.228;2023-01-25T10:09:41;102016.77;;;-0.26;90.80
36254;BME280;22291;52.250;21.228;2023-01-25T10:12:23;102009.12;;;-0.25;91.03
36254;BME280;22291;52.250;21.228;2023-01-25T10:14:52;102010.69;;;-0.20;90.91
36254;BME280;22291;52.250;21.228;2023-01-25T10:17:37;102004.14;;;-0.17;90.92
36254;BME280;22291;52.250;21.228;2023-01-25T10:20:16;102004.47;;;-0.16;90.80
36254;BME280;22291;52.250;21.228;2023-01-25T10:23:14;101998.44;;;-0.14;90.82
36254;BME280;22291;52.250;21.228;2023-01-25T10:28:29;101982.70;;;-0.09;90.64
36254;BME280;22291;52.250;21.228;2023-01-25T10:31:03;101977.19;;;-0.08;90.11
36254;BME280;22291;52.250;21.228;2023-01-25T10:33:34;101977.91;;;-0.10;90.07
36254;BME280;22291;52.250;21.228;2023-01-25T10:36:08;101974.72;;;-0.09;90.05
36254;BME280;22291;52.250;21.228;2023-01-25T10:38:46;101963.76;;;-0.10;89.90
36254;BME280;22291;52.250;21.228;2023-01-25T10:41:31;101959.77;;;-0.10;89.74
36254;BME280;22291;52.250;21.228;2023-01-25T10:44:09;101959.77;;;-0.10;89.82
36254;BME280;22291;52.250;21.228;2023-01-25T10:52:27;101954.38;;;-0.06;89.65
36254;BME280;22291;52.250;21.228;2023-01-25T10:55:20;101958.95;;;-0.11;89.14
36254;BME280;22291;52.250;21.228;2023-01-25T10:57:55;101953.54;;;-0.13;89.14
36254;BME280;22291;52.250;21.228;2023-01-25T11:00:26;101945.56;;;-0.13;89.17
36254;BME280;22291;52.250;21.228;2023-01-25T11:02:56;101945.56;;;-0.13;89.17
36254;BME280;22291;52.250;21.228;2023-01-25T11:05:26;101942.37;;;-0.13;89.50
36254;BME280;22291;52.250;21.228;2023-01-25T11:07:57;101934.30;;;-0.09;89.59
36254;BME280;22291;52.250;21.228;2023-01-25T11:10:36;101931.97;;;-0.08;89.46
36254;BME280;22291;52.250;21.228;2023-01-25T11:15:51;101918.28;;;-0.05;89.14
36254;BME280;22291;52.250;21.228;2023-01-25T11:18:28;101908.13;;;-0.05;88.82
36254;BME280;22291;52.250;21.228;2023-01-25T11:21:09;101909.36;;;-0.08;88.83
36254;BME280;22291;52.250;21.228;2023-01-25T11:23:35;101904.78;;;-0.03;89.14
36254;BME280;22291;52.250;21.228;2023-01-25T11:26:16;101909.26;;;-0.04;89.02
36254;BME280;22291;52.250;21.228;2023-01-25T11:28:47;101904.27;;;-0.03;89.01
36254;BME280;22291;52.250;21.228;2023-01-25T11:31:22;101903.64;;;-0.05;88.54
36254;BME280;22291;52.250;21.228;2023-01-25T11:33:49;101898.81;;;-0.05;88.48
36254;BME280;22291;52.250;21.228;2023-01-25T11:39:57;101887.27;;;-0.08;88.37
36254;BME280;22291;52.250;21.228;2023-01-25T11:45:41;101894.02;;;-0.06;88.60
36254;BME280;22291;52.250;21.228;2023-01-25T11:51:32;101882.95;;;-0.09;88.20
36254;BME280;22291;52.250;21.228;2023-01-25T12:14:10;101844.05;;;-0.10;88.31
36254;BME280;22291;52.250;21.228;2023-01-25T12:16:59;101844.38;;;-0.09;88.20
36254;BME280;22291;52.250;21.228;2023-01-25T12:28:13;101833.34;;;-0.06;88.27
36254;BME280;22291;52.250;21.228;2023-01-25T12:34:02;101821.69;;;0.02;88.24
36254;BME280;22291;52.250;21.228;2023-01-25T12:36:36;101830.51;;;0.02;87.96
36254;BME280;22291;52.250;21.228;2023-01-25T12:39:13;101819.55;;;0.01;87.84
36254;BME280;22291;52.250;21.228;2023-01-25T12:41:58;101823.02;;;0.02;87.80
36254;BME280;22291;52.250;21.228;2023-01-25T12:55:37;101815.86;;;-0.05;87.79
36254;BME280;22291;52.250;21.228;2023-01-25T13:12:19;101791.08;;;-0.05;88.04
36254;BME280;22291;52.250;21.228;2023-01-25T13:14:47;101783.73;;;-0.03;88.12
36254;BME280;22291;52.250;21.228;2023-01-25T13:17:29;101788.02;;;-0.02;87.93
36254;BME280;22291;52.250;21.228;2023-01-25T13:20:00;101781.88;;;-0.03;88.10
36254;BME280;22291;52.250;21.228;2023-01-25T13:25:21;101778.51;;;-0.01;87.71
36254;BME280;22291;52.250;21.228;2023-01-25T13:27:48;101770.23;;;-0.02;87.86
36254;BME280;22291;52.250;21.228;2023-01-25T13:30:33;101765.33;;;0.02;87.96
36254;BME280;22291;52.250;21.228;2023-01-25T13:33:06;101757.95;;;0.04;87.96
36254;BME280;22291;52.250;21.228;2023-01-25T13:41:04;101763.59;;;0.05;87.84
36254;BME280;22291;52.250;21.228;2023-01-25T13:43:35;101755.61;;;0.05;87.84
36254;BME280;22291;52.250;21.228;2023-01-25T13:46:07;101752.11;;;0.05;87.73
36254;BME280;22291;52.250;21.228;2023-01-25T13:48:46;101750.78;;;0.05;87.67
36254;BME280;22291;52.250;21.228;2023-01-25T13:51:13;101743.64;;;0.05;87.63
36254;BME280;22291;52.250;21.228;2023-01-25T13:53:53;101745.86;;;0.02;87.38
36254;BME280;22291;52.250;21.228;2023-01-25T13:56:34;101741.26;;;-0.01;87.45
36254;BME280;22291;52.250;21.228;2023-01-25T13:59:01;101736.14;;;-0.02;87.56
36254;BME280;22291;52.250;21.228;2023-01-25T14:01:30;101727.03;;;-0.04;87.50
36254;BME280;22291;52.250;21.228;2023-01-25T14:04:02;101723.36;;;-0.03;87.39
36254;BME280;22291;52.250;21.228;2023-01-25T14:06:33;101725.70;;;-0.04;87.53
36254;BME280;22291;52.250;21.228;2023-01-25T14:09:13;101722.75;;;-0.05;87.41
36254;BME280;22291;52.250;21.228;2023-01-25T14:11:51;101719.56;;;-0.11;87.17
36254;BME280;22291;52.250;21.228;2023-01-25T14:14:19;101717.30;;;-0.14;87.05
36254;BME280;22291;52.250;21.228;2023-01-25T14:17:17;101723.66;;;-0.15;87.17
36254;BME280;22291;52.250;21.228;2023-01-25T14:19:49;101719.05;;;-0.17;86.94
36254;BME280;22291;52.250;21.228;2023-01-25T14:22:28;101723.45;;;-0.20;86.92
36254;BME280;22291;52.250;21.228;2023-01-25T14:25:15;101723.95;;;-0.27;86.81
36254;BME280;22291;52.250;21.228;2023-01-25T14:27:58;101717.50;;;-0.29;86.95
36254;BME280;22291;52.250;21.228;2023-01-25T14:30:28;101710.64;;;-0.34;86.78
36254;BME280;22291;52.250;21.228;2023-01-25T14:32:59;101711.75;;;-0.39;86.73
36254;BME280;22291;52.250;21.228;2023-01-25T14:35:34;101704.66;;;-0.43;86.85
36254;BME280;22291;52.250;21.228;2023-01-25T14:38:16;101695.78;;;-0.46;87.09
36254;BME280;22291;52.250;21.228;2023-01-25T14:40:47;101698.12;;;-0.47;87.22